Time;durP1;ratioP1;P1;durP2;ratioP2;P2;SDS_P1;SDS_P2;PMS_P1;PMS_P2;Temp;Humidity;BMP_temperature;BMP_pressure;BME280_temperature;BME280_humidity;BME280_pressure;Samples;Min_cycle;Max_cycle;Signal;HPM_P1;HPM_P2
2021/09/06 00:01:13;;;;;;;5.47;2.90;;;;;;;13.53;64.24;102551.16;5014531;28;20022;-85
2021/09/06 00:03:40;;;;;;;4.30;2.83;;;;;;;13.52;64.00;102552.22;5007285;28;20041;-85
2021/09/06 00:06:06;;;;;;;6.15;3.08;;;;;;;13.55;63.79;102557.16;5009450;28;20441;-86
2021/09/06 00:08:31;;;;;;;4.72;2.88;;;;;;;13.53;64.17;102551.16;5017561;28;20155;-85
2021/09/06 00:11:06;;;;;;;4.70;3.17;;;;;;;13.43;64.63;102553.53;5005788;28;20073;-86
2021/09/06 00:13:31;;;;;;;;;;;;;;;13.30;65.40;102553.69;5005903;28;20041;-85
2021/09/06 00:15:57;;;;;;;4.90;2.65;;;;;;;13.35;64.33;102551.16;5006645;28;20507;-85
2021/09/06 00:18:23;;;;;;;4.35;2.58;;;;;;;13.27;64.73;102551.41;5003044;28;20115;-84
2021/09/06 00:20:48;;;;;;;7.07;2.90;;;;;;;13.24;64.78;102544.63;5006359;28;20053;-85
2021/09/06 00:23:14;;;;;;;6.30;2.72;;;;;;;13.27;64.50;102554.13;5010567;28;20554;-85
2021/09/06 00:25:41;;;;;;;4.05;2.65;;;;;;;13.28;65.08;102550.38;5006253;28;20032;-86
2021/09/06 00:28:07;;;;;;;5.03;2.85;;;;;;;13.22;64.82;102549.41;5006580;28;20036;-85
2021/09/06 00:30:33;;;;;;;5.43;3.30;;;;;;;13.21;64.88;102549.63;5010717;28;20113;-85
2021/09/06 00:32:58;;;;;;;4.35;2.92;;;;;;;13.15;65.17;102545.94;5009628;28;20427;-86
2021/09/06 00:35:24;;;;;;;4.32;2.85;;;;;;;13.11;65.07;102549.28;5021243;28;20038;-85
2021/09/06 00:37:49;;;;;;;5.45;2.90;;;;;;;13.04;65.26;102559.28;5027361;28;20432;-85
2021/09/06 00:40:15;;;;;;;6.03;3.05;;;;;;;12.96;65.69;102553.13;5025070;28;20417;-85
2021/09/06 00:42:41;;;;;;;5.50;2.83;;;;;;;12.90;66.05;102554.00;5029783;28;20064;-86
2021/09/06 00:45:07;;;;;;;4.32;2.97;;;;;;;12.94;65.71;102551.72;5010814;28;20098;-84
2021/09/06 00:47:37;;;;;;;5.93;2.40;;;;;;;12.92;65.78;102551.91;5016821;28;20064;-84
2021/09/06 00:50:06;;;;;;;5.60;3.10;;;;;;;12.93;65.86;102560.84;5012483;28;20044;-84
2021/09/06 00:52:33;;;;;;;5.50;3.20;;;;;;;12.88;66.10;102550.69;5016325;28;20067;-84
2021/09/06 00:54:59;;;;;;;7.80;3.20;;;;;;;12.80;66.24;102559.06;5013206;28;20026;-84
2021/09/06 00:57:25;;;;;;;5.60;3.55;;;;;;;12.75;66.36;102553.53;5029990;28;20033;-84
2021/09/06 00:59:50;;;;;;;6.28;3.25;;;;;;;12.70;66.56;102547.94;5025696;28;20037;-84
2021/09/06 01:02:16;;;;;;;5.15;2.70;;;;;;;12.70;66.50;102551.47;5010538;28;20051;-84
2021/09/06 01:04:42;;;;;;;6.03;3.20;;;;;;;12.62;66.81;102557.13;5016917;28;20035;-84
2021/09/06 01:07:08;;;;;;;8.02;3.25;;;;;;;12.64;66.67;102559.59;5008613;28;20038;-86
2021/09/06 01:09:34;;;;;;;5.78;3.00;;;;;;;12.63;66.50;102557.94;5010116;28;20116;-84
2021/09/06 01:12:00;;;;;;;4.05;2.95;;;;;;;12.63;66.54;102556.06;5014066;28;20105;-83
2021/09/06 01:14:26;;;;;;;6.40;3.40;;;;;;;12.55;66.74;102558.19;5007337;28;20032;-84
2021/09/06 01:16:52;;;;;;;5.03;2.80;;;;;;;12.52;66.86;102556.75;5010876;28;20459;-83
2021/09/06 01:19:17;;;;;;;8.10;2.78;;;;;;;12.51;66.82;102559.66;5026426;28;20079;-83
2021/09/06 01:21:43;;;;;;;6.97;2.80;;;;;;;12.47;66.88;102561.16;5008323;28;20396;-84
2021/09/06 01:24:08;;;;;;;5.50;3.10;;;;;;;12.44;66.89;102553.53;5010653;28;20018;-86
2021/09/06 01:26:34;;;;;;;6.18;3.45;;;;;;;12.34;67.73;102557.50;5007258;28;20108;-83
2021/09/06 01:28:59;;;;;;;8.63;3.17;;;;;;;12.34;67.39;102565.56;5012693;28;20096;-84
2021/09/06 01:31:25;;;;;;;6.28;3.88;;;;;;;12.32;67.50;102569.50;5009341;28;20025;-84
2021/09/06 01:33:50;;;;;;;5.60;3.40;;;;;;;12.27;67.61;102570.16;5008573;28;20029;-84
2021/09/06 01:36:16;;;;;;;5.93;3.10;;;;;;;12.21;67.51;102562.09;5010937;28;20095;-83
2021/09/06 01:38:41;;;;;;;8.80;3.50;;;;;;;12.19;67.36;102559.63;5021098;28;20034;-83
2021/09/06 01:41:07;;;;;;;7.63;3.78;;;;;;;12.08;68.05;102563.84;5009005;28;20304;-84
2021/09/06 01:43:32;;;;;;;8.20;3.40;;;;;;;12.02;68.27;102561.16;5008517;28;20061;-84
2021/09/06 01:45:58;;;;;;;6.30;3.53;;;;;;;12.02;67.85;102571.91;5029095;28;20030;-83
2021/09/06 01:48:23;;;;;;;15.75;3.33;;;;;;;11.99;67.88;102569.66;5011477;28;20055;-84
2021/09/06 01:50:49;;;;;;;6.90;3.00;;;;;;;11.96;67.66;102562.84;5023626;28;20025;-84
2021/09/06 01:53:14;;;;;;;5.47;2.90;;;;;;;11.95;67.74;102555.00;5010241;28;20053;-83
2021/09/06 01:55:40;;;;;;;5.20;3.00;;;;;;;11.90;67.88;102568.25;5010199;28;20044;-82
2021/09/06 01:58:05;;;;;;;6.55;2.80;;;;;;;11.85;67.76;102570.72;5008453;28;20025;-84
2021/09/06 02:00:31;;;;;;;4.60;2.78;;;;;;;11.78;67.67;102566.22;5012776;28;20403;-84
2021/09/06 02:02:56;;;;;;;7.28;2.80;;;;;;;11.70;68.24;102557.56;5010502;28;20029;-84
2021/09/06 02:05:22;;;;;;;5.30;2.88;;;;;;;11.67;68.17;102557.94;5007444;28;20026;-84
2021/09/06 02:07:47;;;;;;;5.07;2.47;;;;;;;11.57;68.61;102563.78;5009756;28;20032;-84
2021/09/06 02:10:13;;;;;;;3.92;2.58;;;;;;;11.56;68.26;102562.13;5008264;28;20028;-84
2021/09/06 02:12:38;;;;;;;7.57;3.20;;;;;;;11.37;69.90;102568.38;5012804;28;20033;-84
2021/09/06 02:15:04;;;;;;;6.43;2.85;;;;;;;11.31;70.13;102566.50;5009032;28;20045;-84
2021/09/06 02:17:30;;;;;;;5.47;2.63;;;;;;;11.31;69.65;102566.50;5011391;28;20057;-84
2021/09/06 02:19:56;;;;;;;5.03;2.63;;;;;;;11.30;69.21;102572.91;5028290;28;20065;-84
2021/09/06 02:22:22;;;;;;;4.68;2.50;;;;;;;11.27;69.43;102571.47;5013879;28;20117;-84
2021/09/06 02:24:47;;;;;;;7.03;3.22;;;;;;;11.24;69.48;102568.38;5015929;28;20086;-84
2021/09/06 02:27:13;;;;;;;4.85;2.70;;;;;;;11.21;69.79;102572.28;5024677;28;20021;-85
2021/09/06 02:29:38;;;;;;;5.32;2.80;;;;;;;11.18;69.88;102576.22;5009483;28;20034;-85
2021/09/06 02:32:04;;;;;;;6.07;2.80;;;;;;;11.17;69.92;102569.22;5014237;28;20026;-85
2021/09/06 02:34:30;;;;;;;6.90;3.20;;;;;;;11.09;69.79;102569.41;5010673;28;20030;-84
2021/09/06 02:36:55;;;;;;;5.40;3.00;;;;;;;11.00;69.92;102565.28;5010348;28;20491;-85
2021/09/06 02:39:21;;;;;;;4.03;2.58;;;;;;;10.96;70.02;102569.44;5011333;28;20108;-86
2021/09/06 02:41:46;;;;;;;5.63;2.90;;;;;;;10.97;69.89;102568.41;5017870;28;20025;-85
2021/09/06 02:44:12;;;;;;;5.03;2.78;;;;;;;10.93;70.03;102571.66;5005890;28;20063;-84
2021/09/06 02:46:37;;;;;;;4.00;2.83;;;;;;;10.89;70.17;102566.72;5015569;28;20547;-84
2021/09/06 02:49:03;;;;;;;4.82;2.78;;;;;;;10.80;70.19;102567.16;5012216;28;20511;-84
2021/09/06 02:51:29;;;;;;;5.43;2.70;;;;;;;10.79;70.27;102565.50;5013979;28;20622;-84
2021/09/06 02:53:54;;;;;;;6.53;3.00;;;;;;;10.72;70.50;102561.97;5015497;28;20633;-85
2021/09/06 02:56:20;;;;;;;4.60;3.05;;;;;;;10.66;70.55;102560.94;5011601;28;20712;-86
2021/09/06 02:58:45;;;;;;;5.65;2.72;;;;;;;10.52;71.33;102559.25;5011351;28;20053;-84
2021/09/06 03:01:11;;;;;;;6.20;2.80;;;;;;;10.50;70.93;102558.66;5012476;28;20029;-85
2021/09/06 03:03:36;;;;;;;5.32;2.97;;;;;;;10.53;71.26;102556.38;5028598;28;20037;-85
2021/09/06 03:06:03;;;;;;;4.55;3.15;;;;;;;10.54;71.09;102549.16;5010682;28;20068;-85
2021/09/06 03:08:28;;;;;;;5.18;3.10;;;;;;;10.49;70.83;102547.09;5009269;28;20034;-84
2021/09/06 03:10:54;;;;;;;3.90;2.55;;;;;;;10.44;71.24;102552.25;5005870;28;20052;-85
2021/09/06 03:13:19;;;;;;;4.57;2.80;;;;;;;10.38;71.27;102547.69;5011179;28;20033;-84
2021/09/06 03:15:45;;;;;;;5.45;2.72;;;;;;;10.32;71.19;102548.50;5012487;28;20030;-84
2021/09/06 03:18:11;;;;;;;5.05;3.00;;;;;;;10.29;71.32;102548.91;5027940;28;20025;-85
2021/09/06 03:20:36;;;;;;;5.18;2.47;;;;;;;10.23;71.31;102541.66;5014075;28;20032;-84
2021/09/06 03:23:02;;;;;;;4.10;3.05;;;;;;;10.20;71.77;102536.69;5015754;28;20021;-86
2021/09/06 03:25:27;;;;;;;7.43;3.00;;;;;;;10.14;72.07;102538.31;5007443;28;20555;-84
2021/09/06 03:27:53;;;;;;;7.65;3.20;;;;;;;10.09;72.01;102531.94;5013023;28;20373;-84
2021/09/06 03:30:18;;;;;;;7.72;3.30;;;;;;;9.98;72.61;102526.13;5012191;28;20146;-85
2021/09/06 03:32:44;;;;;;;5.78;2.95;;;;;;;9.93;72.46;102533.94;5010841;28;20022;-85
2021/09/06 03:35:12;;;;;;;7.53;2.90;;;;;;;9.84;72.48;102529.75;5022677;28;20068;-84
2021/09/06 03:37:38;;;;;;;5.22;3.22;;;;;;;9.74;72.83;102528.50;5011957;28;20029;-84
2021/09/06 03:40:04;;;;;;;6.47;3.50;;;;;;;9.73;73.15;102526.84;5013800;28;20399;-84
2021/09/06 03:42:30;;;;;;;5.60;3.17;;;;;;;9.63;73.59;102522.66;5023725;28;20017;-85
2021/09/06 03:44:55;;;;;;;4.75;2.85;;;;;;;9.61;73.26;102523.88;5011573;28;20368;-85
2021/09/06 03:47:21;;;;;;;6.82;3.10;;;;;;;9.55;73.97;102525.53;5012919;28;20032;-86
2021/09/06 03:49:46;;;;;;;5.38;3.28;;;;;;;9.55;73.96;102519.34;5027539;28;20040;-85
2021/09/06 03:52:12;;;;;;;5.65;3.13;;;;;;;9.53;74.01;102518.72;5015820;28;20627;-84
2021/09/06 03:54:37;;;;;;;5.47;3.47;;;;;;;9.52;74.03;102515.22;5013058;28;20507;-85
2021/09/06 03:57:03;;;;;;;5.30;3.17;;;;;;;9.49;74.13;102514.75;5009993;28;20052;-85
2021/09/06 03:59:28;;;;;;;4.15;2.72;;;;;;;9.40;74.25;102522.13;5005844;28;20025;-84
2021/09/06 04:01:54;;;;;;;5.47;3.15;;;;;;;9.31;75.39;102516.09;5012609;28;20025;-84
2021/09/06 04:04:19;;;;;;;5.65;3.00;;;;;;;9.38;74.92;102524.19;5010465;28;20056;-84
2021/09/06 04:06:45;;;;;;;10.43;3.70;;;;;;;9.34;74.50;102515.72;5008156;28;20026;-84
2021/09/06 04:09:10;;;;;;;5.40;3.15;;;;;;;9.33;74.82;102514.06;5013029;28;20057;-84
2021/09/06 04:11:36;;;;;;;5.72;3.05;;;;;;;9.27;75.14;102516.69;5012733;28;20112;-85
2021/09/06 04:14:01;;;;;;;5.68;3.53;;;;;;;9.20;76.01;102519.34;5015177;28;20026;-86
2021/09/06 04:16:27;;;;;;;7.20;3.72;;;;;;;9.24;76.00;102523.25;5006511;28;20021;-84
2021/09/06 04:18:52;;;;;;;6.65;3.35;;;;;;;9.34;75.28;102523.75;5013715;28;20025;-85
2021/09/06 04:21:18;;;;;;;4.70;2.72;;;;;;;9.37;75.34;102530.56;5015759;28;20029;-83
2021/09/06 04:23:43;;;;;;;6.28;2.92;;;;;;;9.42;74.81;102528.13;5013245;28;20041;-83
2021/09/06 04:26:09;;;;;;;5.07;3.10;;;;;;;9.50;75.20;102529.78;5007960;28;20030;-84
2021/09/06 04:28:34;;;;;;;7.28;3.15;;;;;;;9.54;74.61;102533.75;5012981;28;20833;-83
2021/09/06 04:31:00;;;;;;;7.10;3.88;;;;;;;9.61;74.62;102534.59;5013006;28;20033;-83
2021/09/06 04:33:27;;;;;;;8.20;3.25;;;;;;;9.60;74.91;102538.31;5011523;28;20030;-85
2021/09/06 04:35:53;;;;;;;7.57;3.78;;;;;;;9.58;74.58;102540.34;5009688;28;20033;-84
2021/09/06 04:38:19;;;;;;;5.60;3.08;;;;;;;9.54;75.08;102537.25;5012728;28;20029;-85
2021/09/06 04:40:49;;;;;;;5.80;3.67;;;;;;;9.50;75.08;102535.97;5027212;28;20082;-85
2021/09/06 04:43:15;;;;;;;5.60;3.40;;;;;;;9.43;75.37;102531.63;5012389;28;20071;-85
2021/09/06 04:45:41;;;;;;;6.38;3.05;;;;;;;9.42;75.53;102532.63;5011129;28;20629;-84
2021/09/06 04:48:06;;;;;;;6.97;3.90;;;;;;;9.38;75.68;102525.00;5028844;28;20074;-84
2021/09/06 04:50:32;;;;;;;7.38;3.85;;;;;;;9.37;75.72;102527.88;5016573;28;20116;-84
2021/09/06 04:52:59;;;;;;;7.47;3.45;;;;;;;9.37;75.75;102534.06;5028352;28;20044;-84
2021/09/06 04:55:24;;;;;;;4.93;3.38;;;;;;;9.33;76.12;102532.78;5028454;28;20108;-84
2021/09/06 04:57:50;;;;;;;9.43;3.58;;;;;;;9.37;76.10;102534.06;5011338;28;20096;-83
2021/09/06 05:00:16;;;;;;;7.45;3.78;;;;;;;9.42;76.02;102527.28;5008114;28;20044;-85
2021/09/06 05:02:41;;;;;;;7.90;3.50;;;;;;;9.49;75.85;102536.16;5012340;28;20025;-85
2021/09/06 05:05:07;;;;;;;7.95;3.38;;;;;;;9.59;75.65;102539.31;5007805;28;20109;-85
2021/09/06 05:07:33;;;;;;;6.68;3.60;;;;;;;9.72;75.19;102546.59;5010040;28;20037;-85
2021/09/06 05:09:58;;;;;;;6.43;3.22;;;;;;;9.81;75.35;102540.03;5008529;28;20631;-84
2021/09/06 05:12:24;;;;;;;5.28;2.85;;;;;;;9.95;74.93;102547.13;5013141;28;20025;-85
2021/09/06 05:14:49;;;;;;;6.78;3.47;;;;;;;9.99;74.94;102549.19;5006923;28;20037;-85
2021/09/06 05:17:15;;;;;;;5.15;3.65;;;;;;;10.03;75.23;102548.78;5011814;28;20475;-85
2021/09/06 05:19:40;;;;;;;6.47;3.28;;;;;;;10.22;74.67;102550.72;5013189;28;20627;-84
2021/09/06 05:22:06;;;;;;;5.90;3.20;;;;;;;10.41;74.25;102546.44;5010907;28;20029;-84
2021/09/06 05:24:31;;;;;;;8.02;3.40;;;;;;;10.60;73.86;102545.69;5010518;28;20034;-84
2021/09/06 05:26:57;;;;;;;6.65;3.00;;;;;;;10.67;74.15;102556.41;5028907;28;20065;-85
2021/09/06 05:29:22;;;;;;;9.13;3.22;;;;;;;10.47;75.43;102549.16;5025008;28;20052;-85
2021/09/06 05:31:48;;;;;;;6.18;3.60;;;;;;;10.52;74.91;102556.56;5015864;28;20021;-87
2021/09/06 05:34:14;;;;;;;7.25;3.25;;;;;;;10.60;74.60;102559.09;5010341;28;20029;-85
2021/09/06 05:36:42;;;;;;;10.35;3.40;;;;;;;10.71;74.28;102568.34;5025169;28;20112;-85
2021/09/06 05:39:08;;;;;;;7.53;3.15;;;;;;;10.82;73.98;102559.72;5008994;28;20037;-85
2021/09/06 05:41:33;;;;;;;6.10;3.45;;;;;;;11.01;73.26;102576.84;5013000;28;20026;-86
2021/09/06 05:43:59;;;;;;;7.60;2.78;;;;;;;11.17;72.81;102577.25;5021722;28;20044;-85
2021/09/06 05:46:24;;;;;;;6.55;3.10;;;;;;;11.35;72.59;102581.16;5009379;28;20632;-86
2021/09/06 05:48:50;;;;;;;5.07;3.20;;;;;;;11.51;72.62;102578.03;5011258;28;20116;-84
2021/09/06 05:51:16;;;;;;;10.02;3.38;;;;;;;11.71;72.51;102578.00;5010722;28;20092;-85
2021/09/06 05:53:41;;;;;;;6.47;3.10;;;;;;;11.84;72.66;102572.59;5009235;28;20030;-85
2021/09/06 05:56:07;;;;;;;7.25;2.97;;;;;;;11.97;71.93;102575.25;5000910;28;20030;-85
2021/09/06 05:58:33;;;;;;;6.50;2.33;;;;;;;12.09;71.53;102570.84;5009134;28;20179;-85
2021/09/06 06:00:59;;;;;;;5.45;2.65;;;;;;;12.24;70.76;102564.38;5008463;28;20025;-85
2021/09/06 06:03:24;;;;;;;7.85;3.75;;;;;;;12.37;70.31;102565.13;5012881;28;20029;-86
2021/09/06 06:05:50;;;;;;;6.32;3.38;;;;;;;12.61;69.72;102573.47;5011900;28;20495;-86
2021/09/06 06:08:15;;;;;;;3.97;2.60;;;;;;;12.86;69.10;102571.63;5023549;28;20163;-85
2021/09/06 06:10:41;;;;;;;4.15;2.67;;;;;;;13.10;68.19;102569.97;5009699;28;20492;-85
2021/09/06 06:13:06;;;;;;;4.00;2.70;;;;;;;13.18;68.00;102571.59;5013768;28;20033;-84
2021/09/06 06:15:32;;;;;;;6.22;2.58;;;;;;;13.49;67.36;102571.50;5014992;28;20041;-85
2021/09/06 06:17:58;;;;;;;5.75;2.50;;;;;;;13.75;66.01;102566.88;5016476;28;20026;-84
2021/09/06 06:20:24;;;;;;;4.45;2.25;;;;;;;13.84;65.28;102568.22;5014352;28;20029;-85
2021/09/06 06:22:49;;;;;;;3.53;2.40;;;;;;;13.89;64.95;102573.75;5033412;28;20025;-85
2021/09/06 06:25:15;;;;;;;5.90;2.65;;;;;;;14.01;64.67;102569.28;5014843;28;21190;-85
2021/09/06 06:27:40;;;;;;;6.65;2.58;;;;;;;14.19;64.30;102561.16;5013880;28;20033;-85
2021/09/06 06:30:06;;;;;;;4.68;2.58;;;;;;;14.15;63.69;102557.25;5013818;28;20419;-85
2021/09/06 06:32:32;;;;;;;7.30;2.42;;;;;;;14.14;64.10;102570.94;5011718;28;20025;-85
2021/09/06 06:34:57;;;;;;;5.88;2.30;;;;;;;14.20;63.14;102560.09;5028494;28;20037;-85
2021/09/06 06:37:24;;;;;;;4.03;2.15;;;;;;;14.30;62.98;102574.88;5014022;28;20068;-85
2021/09/06 06:39:50;;;;;;;3.63;2.30;;;;;;;14.18;63.12;102561.34;5015711;28;20026;-85
2021/09/06 06:42:16;;;;;;;8.65;2.67;;;;;;;14.24;63.02;102565.03;5007333;28;20580;-85
2021/09/06 06:44:42;;;;;;;4.47;2.50;;;;;;;14.23;62.87;102568.78;5028605;28;20082;-85
2021/09/06 06:47:08;;;;;;;6.80;2.63;;;;;;;14.33;62.97;102569.84;5008220;28;20438;-85
2021/09/06 06:49:33;;;;;;;5.60;2.47;;;;;;;14.56;62.54;102568.34;5012762;28;20040;-85
2021/09/06 06:51:59;;;;;;;6.65;2.92;;;;;;;14.91;61.31;102565.72;5029749;28;20083;-84
2021/09/06 06:54:24;;;;;;;4.15;2.50;;;;;;;15.21;60.41;102571.00;5013296;28;20025;-87
2021/09/06 06:56:50;;;;;;;7.50;3.10;;;;;;;15.48;59.53;102577.59;5009925;28;20021;-84
2021/09/06 06:59:16;;;;;;;8.40;3.13;;;;;;;15.75;59.50;102583.31;5013369;28;20033;-85
2021/09/06 07:01:42;;;;;;;8.73;3.00;;;;;;;16.01;58.70;102576.59;5009278;28;20017;-84
2021/09/06 07:04:08;;;;;;;12.25;3.50;;;;;;;16.10;57.98;102585.13;5012205;28;20048;-85
2021/09/06 07:06:33;;;;;;;5.65;2.58;;;;;;;16.18;57.43;102591.00;5009230;28;20025;-85
2021/09/06 07:09:00;;;;;;;7.55;2.45;;;;;;;16.35;56.77;102592.94;5010560;28;20088;-85
2021/09/06 07:11:25;;;;;;;6.22;2.33;;;;;;;16.33;56.53;102588.53;5012303;28;20083;-85
2021/09/06 07:13:51;;;;;;;4.15;2.35;;;;;;;16.24;56.76;102591.91;5023558;28;20427;-84
2021/09/06 07:16:16;;;;;;;10.60;2.97;;;;;;;16.08;57.31;102587.25;5011681;28;20018;-85
2021/09/06 07:18:42;;;;;;;5.65;2.28;;;;;;;16.09;57.46;102583.47;5004905;28;20506;-86
2021/09/06 07:21:08;;;;;;;5.80;2.42;;;;;;;16.19;57.81;102592.63;5008424;28;20041;-84
2021/09/06 07:23:33;;;;;;;4.43;1.95;;;;;;;16.32;57.31;102584.22;5008024;28;20033;-85
2021/09/06 07:25:59;;;;;;;3.80;2.42;;;;;;;16.56;56.29;102576.81;5004106;28;20037;-84
2021/09/06 07:28:24;;;;;;;4.95;2.65;;;;;;;16.70;56.06;102581.97;5022460;28;20090;-86
2021/09/06 07:30:50;;;;;;;7.22;2.53;;;;;;;16.65;55.51;102577.22;5004950;28;20099;-84
2021/09/06 07:33:15;;;;;;;3.67;2.30;;;;;;;16.55;54.05;102575.19;5012210;28;20144;-84
2021/09/06 07:35:41;;;;;;;7.03;2.20;;;;;;;16.45;53.36;102571.47;5003782;28;20041;-84
2021/09/06 07:38:06;;;;;;;4.40;2.20;;;;;;;16.75;53.23;102577.44;5008763;28;20029;-84
2021/09/06 07:40:32;;;;;;;4.80;2.53;;;;;;;17.05;52.38;102581.69;5009840;28;20043;-84
2021/09/06 07:42:58;;;;;;;4.53;2.67;;;;;;;17.29;51.64;102576.94;5009598;28;20033;-84
2021/09/06 07:45:23;;;;;;;9.00;2.30;;;;;;;17.47;50.94;102580.19;5006958;28;20029;-86
2021/09/06 07:47:49;;;;;;;20.02;10.75;;;;;;;17.57;51.02;102586.81;5004220;28;20036;-84
2021/09/06 07:50:18;;;;;;;5.93;2.58;;;;;;;17.75;50.62;102581.13;5021855;28;20458;-84
2021/09/06 07:52:44;;;;;;;4.93;2.60;;;;;;;17.68;50.98;102585.91;5007065;28;20132;-84
2021/09/06 07:55:10;;;;;;;7.05;2.60;;;;;;;17.50;50.85;102584.28;5021797;28;20108;-83
2021/09/06 07:57:36;;;;;;;5.30;2.90;;;;;;;17.56;50.76;102585.97;5011597;28;20595;-86
2021/09/06 08:00:03;;;;;;;4.50;2.33;;;;;;;17.65;50.30;102587.22;5028245;28;20720;-85
2021/09/06 08:02:28;;;;;;;7.40;2.50;;;;;;;17.92;49.85;102578.34;5011144;28;20049;-84
2021/09/06 08:04:54;;;;;;;3.35;2.25;;;;;;;17.99;49.60;102581.69;5005257;28;20524;-84
2021/09/06 08:07:19;;;;;;;4.00;2.42;;;;;;;17.96;49.95;102574.06;5022202;28;20040;-84
2021/09/06 08:09:45;;;;;;;4.35;2.75;;;;;;;17.94;49.71;102578.91;5009911;28;20720;-83
2021/09/06 08:12:11;;;;;;;5.55;2.80;;;;;;;18.08;49.00;102578.28;5001915;28;20029;-84
2021/09/06 08:14:38;;;;;;;15.95;10.90;;;;;;;18.31;49.14;102577.19;5012267;28;20048;-85
2021/09/06 08:17:04;;;;;;;9.52;2.58;;;;;;;18.62;48.28;102574.75;5015995;28;20036;-84
2021/09/06 08:19:29;;;;;;;6.60;2.10;;;;;;;18.91;47.38;102580.75;5010332;28;20021;-84
2021/09/06 08:21:56;;;;;;;5.50;2.30;;;;;;;19.07;46.33;102574.34;5000647;28;20021;-83
2021/09/06 08:24:23;;;;;;;4.95;2.63;;;;;;;19.19;46.99;102577.69;5014180;28;20116;-85
2021/09/06 08:26:50;;;;;;;7.03;2.45;;;;;;;19.40;46.34;102575.13;5008609;28;20026;-84
2021/09/06 08:29:17;;;;;;;5.18;2.30;;;;;;;19.59;46.30;102574.44;5017025;28;20029;-84
2021/09/06 08:31:42;;;;;;;5.10;2.60;;;;;;;19.87;46.52;102575.09;5030094;28;20022;-85
2021/09/06 08:34:08;;;;;;;6.43;2.38;;;;;;;20.10;45.88;102573.78;5016713;28;20032;-84
2021/09/06 08:36:34;;;;;;;4.18;2.28;;;;;;;20.23;45.46;102574.13;5013801;28;20064;-84
2021/09/06 08:38:59;;;;;;;4.07;2.03;;;;;;;20.35;44.98;102575.78;5015454;28;20403;-85
2021/09/06 08:41:24;;;;;;;6.60;2.50;;;;;;;20.46;44.73;102574.72;5007780;28;20621;-84
2021/09/06 08:43:50;;;;;;;4.38;2.22;;;;;;;20.39;45.11;102577.69;5017162;28;20496;-84
2021/09/06 08:46:17;;;;;;;5.03;2.13;;;;;;;20.26;44.52;102567.31;5016079;28;20029;-84
2021/09/06 08:48:43;;;;;;;14.82;2.85;;;;;;;20.18;44.80;102578.72;5013078;28;20100;-84
2021/09/06 08:51:09;;;;;;;9.77;2.35;;;;;;;20.30;44.48;102578.50;5028581;28;20025;-84
2021/09/06 08:53:34;;;;;;;7.10;2.50;;;;;;;20.70;45.11;102566.88;5016665;28;20037;-84
2021/09/06 08:56:02;;;;;;;8.73;2.63;;;;;;;21.10;44.43;102560.56;5020775;28;20041;-84
2021/09/06 08:58:28;;;;;;;18.70;3.40;;;;;;;21.31;43.10;102564.91;5016682;28;20048;-85
2021/09/06 09:00:53;;;;;;;5.00;2.30;;;;;;;21.52;42.50;102568.38;5014505;28;20521;-83
2021/09/06 09:03:19;;;;;;;4.55;2.10;;;;;;;21.57;41.20;102556.66;5014576;28;21347;-85
2021/09/06 09:06:02;;;;;;;4.03;2.38;;;;;;;21.73;40.69;102558.25;5011151;28;20040;-84
2021/09/06 09:08:28;;;;;;;9.27;5.85;;;;;;;21.91;40.89;102560.34;5021480;28;20021;-85
2021/09/06 09:11:00;;;;;;;19.80;13.18;;;;;;;21.99;40.03;102554.28;5022386;28;20513;-84
2021/09/06 09:13:29;;;;;;;3.17;2.15;;;;;;;22.08;40.08;102557.25;5008440;28;20026;-85
2021/09/06 09:15:55;;;;;;;6.25;2.17;;;;;;;22.16;40.24;102561.31;5022584;28;20018;-85
2021/09/06 09:18:32;;;;;;;6.72;2.60;;;;;;;22.32;40.11;102560.13;5015158;28;20092;-84
2021/09/06 09:21:03;;;;;;;3.97;1.95;;;;;;;22.29;38.43;102549.78;5014349;28;20034;-84
2021/09/06 09:23:36;;;;;;;5.15;2.40;;;;;;;22.35;36.28;102551.38;5027077;28;20076;-84
2021/09/06 09:26:03;;;;;;;2.65;1.65;;;;;;;22.45;37.09;102545.03;5015444;28;20658;-84
2021/09/06 09:28:29;;;;;;;3.33;2.10;;;;;;;22.60;37.47;102550.34;5006333;28;20044;-84
2021/09/06 09:31:06;;;;;;;4.68;2.30;;;;;;;22.81;36.31;102556.47;5010662;28;20076;-85
2021/09/06 09:33:38;;;;;;;3.80;1.88;;;;;;;22.92;36.09;102550.66;5012596;28;20460;-86
2021/09/06 09:36:04;;;;;;;3.65;2.30;;;;;;;23.13;36.67;102550.44;5009476;28;20021;-84
2021/09/06 09:38:34;;;;;;;4.65;2.15;;;;;;;23.26;35.51;102557.97;5012474;28;22085;-84
2021/09/06 09:41:00;;;;;;;4.15;2.50;;;;;;;23.35;33.89;102545.31;5010193;28;20040;-84
2021/09/06 09:43:33;;;;;;;3.65;2.08;;;;;;;23.49;34.08;102542.66;5021412;28;20631;-84
2021/09/06 09:46:05;;;;;;;4.82;2.17;;;;;;;23.70;33.84;102541.34;5009173;28;20064;-85
2021/09/06 09:48:30;;;;;;;5.18;2.50;;;;;;;23.85;34.00;102547.72;5007295;28;20029;-84
2021/09/06 09:50:57;;;;;;;15.02;8.45;;;;;;;23.95;33.63;102547.59;5006457;28;20026;-84
2021/09/06 09:53:23;;;;;;;22.67;12.57;;;;;;;24.12;33.91;102545.16;5011419;28;20022;-84
2021/09/06 09:55:49;;;;;;;54.60;30.42;;;;;;;24.24;33.77;102545.53;5011623;28;20025;-85
2021/09/06 09:58:16;;;;;;;8.88;4.95;;;;;;;24.21;33.71;102540.63;5010433;28;20022;-84
2021/09/06 10:00:46;;;;;;;4.90;3.05;;;;;;;24.20;34.15;102530.78;5023814;28;20487;-86
2021/09/06 10:03:12;;;;;;;4.88;2.10;;;;;;;24.25;33.50;102529.91;5008884;28;20030;-85
2021/09/06 10:05:39;;;;;;;11.40;7.45;;;;;;;24.10;32.54;102529.03;5019304;28;20685;-84
2021/09/06 10:08:09;;;;;;;4.53;2.42;;;;;;;24.11;33.03;102524.34;5010199;28;20053;-84
2021/09/06 10:10:39;;;;;;;4.57;2.67;;;;;;;24.15;33.22;102519.09;5002577;28;20025;-84
2021/09/06 10:13:08;;;;;;;4.78;2.00;;;;;;;24.22;33.22;102512.13;5009727;28;20087;-84
2021/09/06 10:15:35;;;;;;;3.65;2.28;;;;;;;24.10;32.20;102511.78;5007568;28;20056;-84
2021/09/06 10:18:22;;;;;;;6.55;2.67;;;;;;;24.15;31.77;102498.00;5010168;28;20024;-84
2021/09/06 10:20:52;;;;;;;3.53;1.80;;;;;;;24.13;32.23;102502.97;5011107;28;20592;-84
2021/09/06 10:23:19;;;;;;;4.22;1.95;;;;;;;24.18;31.36;102505.63;5023035;28;20030;-85
2021/09/06 10:25:46;;;;;;;4.57;2.15;;;;;;;24.20;30.19;102499.84;5018072;28;20033;-85
2021/09/06 10:28:13;;;;;;;3.25;1.95;;;;;;;24.33;30.54;102502.66;5011425;28;20396;-84
2021/09/06 10:30:48;;;;;;;3.22;2.05;;;;;;;24.57;29.55;102499.78;5007545;28;20125;-87
2021/09/06 10:33:33;;;;;;;6.18;1.92;;;;;;;24.47;29.50;102507.38;5010735;28;20087;-87
2021/09/06 10:36:25;;;;;;;4.18;1.90;;;;;;;24.18;29.39;102502.06;4993693;28;20474;-86
2021/09/06 10:39:00;;;;;;;3.22;2.08;;;;;;;23.99;30.48;102507.56;4985279;28;20040;-84
2021/09/06 10:41:26;;;;;;;4.68;1.98;;;;;;;23.88;30.21;102508.78;5003808;28;20036;-85
2021/09/06 10:43:54;;;;;;;3.63;2.08;;;;;;;23.96;30.28;102502.66;5008421;28;20024;-86
2021/09/06 10:46:25;;;;;;;4.13;2.17;;;;;;;23.76;30.46;102501.84;5023218;28;20563;-86
2021/09/06 10:48:51;;;;;;;3.30;1.90;;;;;;;23.77;30.36;102498.00;5005042;28;20049;-87
2021/09/06 10:51:30;;;;;;;3.22;1.70;;;;;;;23.69;30.74;102495.91;5008982;28;20033;-85
2021/09/06 10:53:58;;;;;;;3.33;1.92;;;;;;;23.79;31.30;102490.31;5009664;28;20654;-84
2021/09/06 10:56:26;;;;;;;5.32;2.33;;;;;;;24.39;31.17;102482.28;5016840;28;20044;-85
2021/09/06 10:58:52;;;;;;;16.88;9.88;;;;;;;24.73;29.92;102478.41;5001052;28;20050;-85
2021/09/06 11:01:17;;;;;;;20.45;13.20;;;;;;;24.93;29.54;102475.28;5023178;28;20087;-84
2021/09/06 11:03:46;;;;;;;5.35;2.70;;;;;;;25.24;30.18;102485.69;5006549;28;20087;-86
2021/09/06 11:06:11;;;;;;;4.88;2.55;;;;;;;25.28;29.12;102475.72;5007387;28;20033;-87
2021/09/06 11:08:38;;;;;;;5.05;2.58;;;;;;;25.43;29.64;102480.91;5005657;28;20032;-84
2021/09/06 11:11:09;;;;;;;4.53;2.10;;;;;;;25.50;29.99;102478.56;5016286;28;20552;-84
2021/09/06 11:13:42;;;;;;;3.63;2.08;;;;;;;25.29;29.69;102480.09;4994025;28;20026;-85
2021/09/06 11:16:18;;;;;;;4.80;2.08;;;;;;;25.16;29.37;102469.97;5008329;28;20391;-86
2021/09/06 11:18:51;;;;;;;5.88;2.60;;;;;;;25.04;29.68;102477.88;5014470;28;20035;-86
2021/09/06 11:21:21;;;;;;;4.90;3.20;;;;;;;24.92;30.36;102479.16;5026644;28;20029;-85
2021/09/06 11:23:50;;;;;;;3.38;2.38;;;;;;;25.08;30.47;102474.22;5010383;28;20029;-87